sensor_id;sensor_type;location;lat;lon;timestamp;pressure;altitude;pressure_sealevel;temperature;humidity
19286;BME280;9776;50.798;6.430;2022-08-07T00:01:55;101194.28;;;17.09;48.82
19286;BME280;9776;50.798;6.430;2022-08-07T00:04:22;101189.81;;;17.01;49.16
19286;BME280;9776;50.798;6.430;2022-08-07T00:06:49;101179.03;;;16.78;49.56
19286;BME280;9776;50.798;6.430;2022-08-07T00:09:15;101181.03;;;16.60;50.19
19286;BME280;9776;50.798;6.430;2022-08-07T00:11:42;101180.53;;;16.57;50.07
19286;BME280;9776;50.798;6.430;2022-08-07T00:14:09;101183.88;;;16.67;50.14
19286;BME280;9776;50.798;6.430;2022-08-07T00:16:36;101181.22;;;16.59;50.37
19286;BME280;9776;50.798;6.430;2022-08-07T00:19:04;101176.03;;;16.57;50.39
19286;BME280;9776;50.798;6.430;2022-08-07T00:21:31;101167.72;;;16.60;50.57
19286;BME280;9776;50.798;6.430;2022-08-07T00:23:57;101164.69;;;16.71;50.17
19286;BME280;9776;50.798;6.430;2022-08-07T00:26:24;101166.03;;;16.75;50.07
19286;BME280;9776;50.798;6.430;2022-08-07T00:28:51;101172.03;;;16.77;50.33
19286;BME280;9776;50.798;6.430;2022-08-07T00:31:18;101162.53;;;16.75;50.32
19286;BME280;9776;50.798;6.430;2022-08-07T00:33:44;101156.72;;;16.79;50.22
19286;BME280;9776;50.798;6.430;2022-08-07T00:36:12;101154.53;;;16.75;50.31
19286;BME280;9776;50.798;6.430;2022-08-07T00:38:39;101156.53;;;16.73;50.39
19286;BME280;9776;50.798;6.430;2022-08-07T00:41:06;101153.03;;;16.72;50.51
19286;BME280;9776;50.798;6.430;2022-08-07T00:43:33;101158.72;;;16.69;50.61
19286;BME280;9776;50.798;6.430;2022-08-07T00:46:00;101159.41;;;16.55;50.91
19286;BME280;9776;50.798;6.430;2022-08-07T00:48:28;101145.38;;;16.53;50.70
19286;BME280;9776;50.798;6.430;2022-08-07T00:50:55;101148.38;;;16.50;50.98
19286;BME280;9776;50.798;6.430;2022-08-07T00:53:23;101146.38;;;16.44;51.18
19286;BME280;9776;50.798;6.430;2022-08-07T00:55:50;101141.53;;;16.31;51.39
19286;BME280;9776;50.798;6.430;2022-08-07T00:58:18;101139.22;;;16.28;51.57
19286;BME280;9776;50.798;6.430;2022-08-07T01:00:45;101137.91;;;16.32;51.52
19286;BME280;9776;50.798;6.430;2022-08-07T01:03:12;101134.72;;;16.29;51.35
19286;BME280;9776;50.798;6.430;2022-08-07T01:05:39;101135.56;;;16.29;51.33
19286;BME280;9776;50.798;6.430;2022-08-07T01:08:08;101136.88;;;16.25;51.61
19286;BME280;9776;50.798;6.430;2022-08-07T01:10:36;101143.22;;;16.24;51.57
19286;BME280;9776;50.798;6.430;2022-08-07T01:13:04;101142.53;;;16.14;51.89
19286;BME280;9776;50.798;6.430;2022-08-07T01:15:31;101149.22;;;16.18;52.01
19286;BME280;9776;50.798;6.430;2022-08-07T01:18:00;101139.72;;;16.16;51.90
19286;BME280;9776;50.798;6.430;2022-08-07T01:20:32;101139.22;;;16.12;52.04
19286;BME280;9776;50.798;6.430;2022-08-07T01:23:01;101134.72;;;16.13;52.02
19286;BME280;9776;50.798;6.430;2022-08-07T01:25:28;101122.72;;;16.09;52.24
19286;BME280;9776;50.798;6.430;2022-08-07T01:27:54;101123.56;;;16.09;52.25
19286;BME280;9776;50.798;6.430;2022-08-07T01:30:22;101118.25;;;16.09;52.27
19286;BME280;9776;50.798;6.430;2022-08-07T01:32:50;101118.41;;;16.00;52.36
19286;BME280;9776;50.798;6.430;2022-08-07T01:35:17;101125.06;;;15.96;52.74
19286;BME280;9776;50.798;6.430;2022-08-07T01:37:44;101125.69;;;15.81;52.98
19286;BME280;9776;50.798;6.430;2022-08-07T01:40:13;101130.53;;;15.86;52.84
19286;BME280;9776;50.798;6.430;2022-08-07T01:42:42;101132.66;;;15.66;53.37
19286;BME280;9776;50.798;6.430;2022-08-07T01:45:10;101130.00;;;15.66;53.21
19286;BME280;9776;50.798;6.430;2022-08-07T01:47:37;101138.69;;;15.43;53.70
19286;BME280;9776;50.798;6.430;2022-08-07T01:50:04;101139.66;;;15.33;53.97
19286;BME280;9776;50.798;6.430;2022-08-07T01:52:31;101134.22;;;15.43;53.71
19286;BME280;9776;50.798;6.430;2022-08-07T01:55:01;101128.78;;;15.53;53.45
19286;BME280;9776;50.798;6.430;2022-08-07T01:57:31;101130.97;;;15.65;52.99
19286;BME280;9776;50.798;6.430;2022-08-07T02:00:03;101134.81;;;15.71;52.84
19286;BME280;9776;50.798;6.430;2022-08-07T02:02:34;101142.28;;;15.67;52.91
19286;BME280;9776;50.798;6.430;2022-08-07T02:05:05;101148.78;;;15.65;52.99
19286;BME280;9776;50.798;6.430;2022-08-07T02:07:35;101141.75;;;15.56;53.16
19286;BME280;9776;50.798;6.430;2022-08-07T02:10:04;101144.88;;;15.43;53.57
19286;BME280;9776;50.798;6.430;2022-08-07T02:12:36;101142.44;;;15.50;53.13
19286;BME280;9776;50.798;6.430;2022-08-07T02:15:04;101146.75;;;15.51;53.44
19286;BME280;9776;50.798;6.430;2022-08-07T02:17:32;101144.78;;;15.27;54.06
19286;BME280;9776;50.798;6.430;2022-08-07T02:20:01;101136.88;;;15.09;54.47
19286;BME280;9776;50.798;6.430;2022-08-07T02:22:29;101140.91;;;15.13;54.43
19286;BME280;9776;50.798;6.430;2022-08-07T02:24:57;101138.13;;;15.23;54.34
19286;BME280;9776;50.798;6.430;2022-08-07T02:27:26;101131.31;;;15.20;54.31
19286;BME280;9776;50.798;6.430;2022-08-07T02:29:56;101131.44;;;15.19;54.61
19286;BME280;9776;50.798;6.430;2022-08-07T02:32:24;101125.78;;;15.14;54.83
19286;BME280;9776;50.798;6.430;2022-08-07T02:34:53;101133.13;;;15.20;54.69
19286;BME280;9776;50.798;6.430;2022-08-07T02:37:22;101128.34;;;15.23;54.67
19286;BME280;9776;50.798;6.430;2022-08-07T02:39:51;101133.47;;;15.25;54.38
19286;BME280;9776;50.798;6.430;2022-08-07T02:42:19;101139.47;;;15.27;54.25
19286;BME280;9776;50.798;6.430;2022-08-07T02:44:48;101134.94;;;15.19;54.41
19286;BME280;9776;50.798;6.430;2022-08-07T02:47:17;101134.91;;;15.11;54.42
19286;BME280;9776;50.798;6.430;2022-08-07T02:49:44;101133.41;;;15.09;54.46
19286;BME280;9776;50.798;6.430;2022-08-07T02:52:14;101129.88;;;15.00;54.28
19286;BME280;9776;50.798;6.430;2022-08-07T02:54:43;101128.16;;;14.91;54.29
19286;BME280;9776;50.798;6.430;2022-08-07T02:57:12;101122.59;;;14.76;54.89
19286;BME280;9776;50.798;6.430;2022-08-07T02:59:40;101120.72;;;14.69;55.21
19286;BME280;9776;50.798;6.430;2022-08-07T03:02:10;101121.16;;;14.56;55.68
19286;BME280;9776;50.798;6.430;2022-08-07T03:04:40;101118.41;;;14.66;55.52
19286;BME280;9776;50.798;6.430;2022-08-07T03:07:09;101109.44;;;14.75;55.16
19286;BME280;9776;50.798;6.430;2022-08-07T03:09:36;101117.13;;;14.78;55.05
19286;BME280;9776;50.798;6.430;2022-08-07T03:12:03;101114.63;;;14.76;55.24
19286;BME280;9776;50.798;6.430;2022-08-07T03:14:31;101112.13;;;14.75;55.37
19286;BME280;9776;50.798;6.430;2022-08-07T03:17:00;101120.91;;;14.75;55.41
19286;BME280;9776;50.798;6.430;2022-08-07T03:19:28;101113.13;;;14.74;55.38
19286;BME280;9776;50.798;6.430;2022-08-07T03:21:57;101120.09;;;14.75;55.51
19286;BME280;9776;50.798;6.430;2022-08-07T03:24:25;101123.88;;;14.72;55.39
19286;BME280;9776;50.798;6.430;2022-08-07T03:26:52;101122.56;;;14.68;55.46
19286;BME280;9776;50.798;6.430;2022-08-07T03:29:19;101124.50;;;14.66;55.63
19286;BME280;9776;50.798;6.430;2022-08-07T03:31:47;101121.06;;;14.66;55.63
19286;BME280;9776;50.798;6.430;2022-08-07T03:34:16;101115.22;;;14.62;55.64
19286;BME280;9776;50.798;6.430;2022-08-07T03:36:44;101112.56;;;14.62;55.78
19286;BME280;9776;50.798;6.430;2022-08-07T03:39:14;101116.84;;;14.63;55.62
19286;BME280;9776;50.798;6.430;2022-08-07T03:41:42;101113.53;;;14.61;55.71
19286;BME280;9776;50.798;6.430;2022-08-07T03:44:09;101110.00;;;14.53;56.01
19286;BME280;9776;50.798;6.430;2022-08-07T03:46:36;101108.47;;;14.50;56.02
19286;BME280;9776;50.798;6.430;2022-08-07T03:49:07;101106.97;;;14.48;55.92
19286;BME280;9776;50.798;6.430;2022-08-07T03:51:34;101102.72;;;14.37;56.20
19286;BME280;9776;50.798;6.430;2022-08-07T03:54:02;101100.47;;;14.25;56.77
19286;BME280;9776;50.798;6.430;2022-08-07T03:56:32;101110.25;;;14.24;56.65
19286;BME280;9776;50.798;6.430;2022-08-07T03:59:03;101104.94;;;14.24;56.69
19286;BME280;9776;50.798;6.430;2022-08-07T04:01:31;101108.97;;;14.28;56.56
19286;BME280;9776;50.798;6.430;2022-08-07T04:03:59;101109.34;;;14.33;56.32
19286;BME280;9776;50.798;6.430;2022-08-07T04:06:26;101110.88;;;14.36;56.19
19286;BME280;9776;50.798;6.430;2022-08-07T04:08:53;101109.34;;;14.33;56.31
19286;BME280;9776;50.798;6.430;2022-08-07T04:11:20;101106.00;;;14.31;56.40
19286;BME280;9776;50.798;6.430;2022-08-07T04:13:49;101111.91;;;14.25;56.59
19286;BME280;9776;50.798;6.430;2022-08-07T04:16:16;101111.03;;;14.16;56.76
19286;BME280;9776;50.798;6.430;2022-08-07T04:18:43;101116.47;;;14.15;56.78
19286;BME280;9776;50.798;6.430;2022-08-07T04:21:10;101112.84;;;14.16;56.85
19286;BME280;9776;50.798;6.430;2022-08-07T04:23:37;101121.34;;;14.02;57.18
19286;BME280;9776;50.798;6.430;2022-08-07T04:26:06;101120.03;;;13.88;57.63
19286;BME280;9776;50.798;6.430;2022-08-07T04:28:33;101124.22;;;13.91;57.63
19286;BME280;9776;50.798;6.430;2022-08-07T04:31:01;101119.66;;;14.01;57.44
19286;BME280;9776;50.798;6.430;2022-08-07T04:33:28;101123.69;;;14.05;57.27
19286;BME280;9776;50.798;6.430;2022-08-07T04:35:56;101110.41;;;14.05;57.36
19286;BME280;9776;50.798;6.430;2022-08-07T04:38:24;101110.50;;;13.95;57.79
19286;BME280;9776;50.798;6.430;2022-08-07T04:40:51;101110.56;;;13.86;57.85
19286;BME280;9776;50.798;6.430;2022-08-07T04:43:21;101119.53;;;13.85;58.10
19286;BME280;9776;50.798;6.430;2022-08-07T04:45:53;101120.63;;;14.00;57.69
19286;BME280;9776;50.798;6.430;2022-08-07T04:48:29;101115.44;;;14.08;57.42
19286;BME280;9776;50.798;6.430;2022-08-07T04:51:04;101117.84;;;14.19;57.28
19286;BME280;9776;50.798;6.430;2022-08-07T04:53:38;101126.03;;;14.26;57.13
19286;BME280;9776;50.798;6.430;2022-08-07T04:56:15;101129.50;;;14.26;57.12
19286;BME280;9776;50.798;6.430;2022-08-07T04:58:47;101125.09;;;14.17;57.59
19286;BME280;9776;50.798;6.430;2022-08-07T05:01:20;101135.81;;;14.07;58.12
19286;BME280;9776;50.798;6.430;2022-08-07T05:03:57;101133.31;;;14.06;58.30
19286;BME280;9776;50.798;6.430;2022-08-07T05:06:32;101134.38;;;14.13;58.25
19286;BME280;9776;50.798;6.430;2022-08-07T05:09:03;101127.84;;;14.25;58.21
19286;BME280;9776;50.798;6.430;2022-08-07T05:11:37;101131.94;;;14.37;57.76
19286;BME280;9776;50.798;6.430;2022-08-07T05:14:08;101131.00;;;14.46;57.71
19286;BME280;9776;50.798;6.430;2022-08-07T05:16:36;101135.03;;;14.50;58.04
19286;BME280;9776;50.798;6.430;2022-08-07T05:19:11;101140.34;;;14.50;58.10
19286;BME280;9776;50.798;6.430;2022-08-07T05:21:44;101139.44;;;14.59;57.63
19286;BME280;9776;50.798;6.430;2022-08-07T05:24:14;101140.63;;;14.65;57.66
19286;BME280;9776;50.798;6.430;2022-08-07T05:26:43;101142.81;;;14.69;57.67
19286;BME280;9776;50.798;6.430;2022-08-07T05:29:13;101144.25;;;14.90;57.30
19286;BME280;9776;50.798;6.430;2022-08-07T05:31:43;101142.06;;;15.11;56.89
19286;BME280;9776;50.798;6.430;2022-08-07T05:34:14;101149.13;;;15.28;56.88
19286;BME280;9776;50.798;6.430;2022-08-07T05:36:43;101142.28;;;15.59;56.52
19286;BME280;9776;50.798;6.430;2022-08-07T05:39:11;101145.34;;;15.88;55.72
19286;BME280;9776;50.798;6.430;2022-08-07T05:41:40;101133.56;;;16.23;55.18
19286;BME280;9776;50.798;6.430;2022-08-07T05:44:08;101130.72;;;16.25;55.46
19286;BME280;9776;50.798;6.430;2022-08-07T05:46:37;101148.75;;;16.55;54.93
19286;BME280;9776;50.798;6.430;2022-08-07T05:49:06;101146.50;;;16.83;54.48
19286;BME280;9776;50.798;6.430;2022-08-07T05:51:34;101139.28;;;17.16;53.76
19286;BME280;9776;50.798;6.430;2022-08-07T05:54:01;101141.47;;;17.51;53.38
19286;BME280;9776;50.798;6.430;2022-08-07T05:56:30;101148.59;;;17.89;52.28
19286;BME280;9776;50.798;6.430;2022-08-07T05:58:58;101144.41;;;18.18;51.72
19286;BME280;9776;50.798;6.430;2022-08-07T06:01:28;101149.84;;;18.47;51.36
19286;BME280;9776;50.798;6.430;2022-08-07T06:03:56;101143.19;;;18.80;50.52
19286;BME280;9776;50.798;6.430;2022-08-07T06:06:24;101149.56;;;19.08;50.18
19286;BME280;9776;50.798;6.430;2022-08-07T06:08:53;101154.78;;;19.39;49.16
19286;BME280;9776;50.798;6.430;2022-08-07T06:11:20;101162.56;;;19.70;48.58
19286;BME280;9776;50.798;6.430;2022-08-07T06:13:47;101159.66;;;20.07;47.50
19286;BME280;9776;50.798;6.430;2022-08-07T06:16:14;101165.41;;;20.47;46.81
19286;BME280;9776;50.798;6.430;2022-08-07T06:18:42;101169.00;;;20.81;46.07
19286;BME280;9776;50.798;6.430;2022-08-07T06:21:10;101165.88;;;21.06;45.40
19286;BME280;9776;50.798;6.430;2022-08-07T06:23:37;101170.91;;;21.15;45.08
19286;BME280;9776;50.798;6.430;2022-08-07T06:26:10;101161.13;;;21.42;44.39
19286;BME280;9776;50.798;6.430;2022-08-07T06:28:47;101165.22;;;21.79;43.71
19286;BME280;9776;50.798;6.430;2022-08-07T06:31:13;101158.28;;;22.24;42.66
19286;BME280;9776;50.798;6.430;2022-08-07T06:33:42;101158.50;;;22.16;42.75
19286;BME280;9776;50.798;6.430;2022-08-07T06:36:10;101155.16;;;22.00;42.95
19286;BME280;9776;50.798;6.430;2022-08-07T06:38:40;101161.16;;;21.96;42.97
19286;BME280;9776;50.798;6.430;2022-08-07T06:41:11;101152.69;;;22.12;42.42
19286;BME280;9776;50.798;6.430;2022-08-07T06:43:42;101159.75;;;22.52;41.76
19286;BME280;9776;50.798;6.430;2022-08-07T06:46:10;101160.94;;;23.09;40.93
19286;BME280;9776;50.798;6.430;2022-08-07T06:48:37;101162.06;;;23.59;39.97
19286;BME280;9776;50.798;6.430;2022-08-07T06:51:07;101160.97;;;24.04;38.74
19286;BME280;9776;50.798;6.430;2022-08-07T06:53:35;101156.06;;;24.33;38.29
19286;BME280;9776;50.798;6.430;2022-08-07T06:56:05;101155.91;;;24.70;37.63
19286;BME280;9776;50.798;6.430;2022-08-07T06:58:35;101148.66;;;24.96;37.06
19286;BME280;9776;50.798;6.430;2022-08-07T07:01:05;101148.13;;;25.23;36.47
19286;BME280;9776;50.798;6.430;2022-08-07T07:03:36;101151.44;;;25.44;36.25
19286;BME280;9776;50.798;6.430;2022-08-07T07:06:04;101151.41;;;25.80;35.56
19286;BME280;9776;50.798;6.430;2022-08-07T07:08:31;101155.16;;;26.09;34.95
19286;BME280;9776;50.798;6.430;2022-08-07T07:10:58;101155.72;;;26.29;34.63
19286;BME280;9776;50.798;6.430;2022-08-07T07:13:34;101148.22;;;26.54;33.84
19286;BME280;9776;50.798;6.430;2022-08-07T07:16:07;101151.78;;;27.01;33.38
19286;BME280;9776;50.798;6.430;2022-08-07T07:18:39;101143.81;;;27.34;32.95
19286;BME280;9776;50.798;6.430;2022-08-07T07:21:11;101150.63;;;27.48;32.45
19286;BME280;9776;50.798;6.430;2022-08-07T07:23:39;101142.75;;;27.75;31.84
19286;BME280;9776;50.798;6.430;2022-08-07T07:26:08;101148.53;;;28.07;31.45
19286;BME280;9776;50.798;6.430;2022-08-07T07:28:41;101148.13;;;28.32;30.83
19286;BME280;9776;50.798;6.430;2022-08-07T07:31:14;101131.75;;;28.77;30.38
19286;BME280;9776;50.798;6.430;2022-08-07T07:33:42;101133.50;;;29.04;29.77
19286;BME280;9776;50.798;6.430;2022-08-07T07:36:10;101137.22;;;29.37;29.26
19286;BME280;9776;50.798;6.430;2022-08-07T07:38:38;101134.78;;;29.18;29.28
19286;BME280;9776;50.798;6.430;2022-08-07T07:41:08;101123.03;;;29.56;28.85
19286;BME280;9776;50.798;6.430;2022-08-07T07:43:40;101131.97;;;30.05;27.72
19286;BME280;9776;50.798;6.430;2022-08-07T07:46:08;101129.84;;;30.39;27.19
19286;BME280;9776;50.798;6.430;2022-08-07T07:48:35;101127.69;;;30.83;27.02
19286;BME280;9776;50.798;6.430;2022-08-07T07:51:05;101128.97;;;31.07;26.69
19286;BME280;9776;50.798;6.430;2022-08-07T07:53:33;101121.72;;;31.43;25.71
19286;BME280;9776;50.798;6.430;2022-08-07T07:56:02;101124.31;;;31.80;25.48
19286;BME280;9776;50.798;6.430;2022-08-07T07:58:36;101128.47;;;32.13;25.04
19286;BME280;9776;50.798;6.430;2022-08-07T08:01:07;101122.47;;;32.66;24.47
19286;BME280;9776;50.798;6.430;2022-08-07T08:03:36;101118.25;;;32.99;23.92
19286;BME280;9776;50.798;6.430;2022-08-07T08:06:04;101115.50;;;33.14;23.63
19286;BME280;9776;50.798;6.430;2022-08-07T08:08:33;101121.31;;;33.61;23.53
19286;BME280;9776;50.798;6.430;2022-08-07T08:11:00;101110.34;;;34.00;22.91
19286;BME280;9776;50.798;6.430;2022-08-07T08:13:28;101114.72;;;34.40;22.60
19286;BME280;9776;50.798;6.430;2022-08-07T08:15:57;101119.75;;;34.86;21.95
19286;BME280;9776;50.798;6.430;2022-08-07T08:18:28;101114.97;;;35.20;21.61
19286;BME280;9776;50.798;6.430;2022-08-07T08:20:59;101109.63;;;35.47;21.27
19286;BME280;9776;50.798;6.430;2022-08-07T08:23:27;101108.00;;;35.27;21.55
19286;BME280;9776;50.798;6.430;2022-08-07T08:26:13;101109.38;;;35.67;20.97
19286;BME280;9776;50.798;6.430;2022-08-07T08:29:00;101106.59;;;35.30;21.21
19286;BME280;9776;50.798;6.430;2022-08-07T08:31:32;101098.59;;;34.62;21.87
19286;BME280;9776;50.798;6.430;2022-08-07T08:34:03;101102.38;;;34.66;22.01
19286;BME280;9776;50.798;6.430;2022-08-07T08:36:33;101098.34;;;35.30;21.22
19286;BME280;9776;50.798;6.430;2022-08-07T08:39:02;101099.63;;;36.12;20.33
19286;BME280;9776;50.798;6.430;2022-08-07T08:41:37;101094.19;;;36.85;19.21
19286;BME280;9776;50.798;6.430;2022-08-07T08:44:11;101092.28;;;37.35;18.40
19286;BME280;9776;50.798;6.430;2022-08-07T08:46:45;101084.41;;;37.92;17.95
19286;BME280;9776;50.798;6.430;2022-08-07T08:49:20;101091.09;;;38.44;16.80
19286;BME280;9776;50.798;6.430;2022-08-07T08:51:56;101081.72;;;38.93;16.37
19286;BME280;9776;50.798;6.430;2022-08-07T08:54:27;101078.34;;;39.04;16.41
19286;BME280;9776;50.798;6.430;2022-08-07T08:56:58;101075.97;;;39.63;15.77
19286;BME280;9776;50.798;6.430;2022-08-07T08:59:32;101086.06;;;40.02;15.58
19286;BME280;9776;50.798;6.430;2022-08-07T09:02:09;101077.41;;;40.67;14.76
19286;BME280;9776;50.798;6.430;2022-08-07T09:04:45;101073.56;;;40.97;14.78
19286;BME280;9776;50.798;6.430;2022-08-07T09:07:20;101056.44;;;41.45;14.60
19286;BME280;9776;50.798;6.430;2022-08-07T09:09:55;101066.13;;;40.43;15.13
19286;BME280;9776;50.798;6.430;2022-08-07T09:12:38;101055.97;;;40.55;14.92
19286;BME280;9776;50.798;6.430;2022-08-07T09:15:20;101065.66;;;41.08;14.58
19286;BME280;9776;50.798;6.430;2022-08-07T09:18:05;101065.97;;;40.39;14.93
19286;BME280;9776;50.798;6.430;2022-08-07T09:20:47;101061.69;;;41.17;14.43
19286;BME280;9776;50.798;6.430;2022-08-07T09:23:25;101062.19;;;42.26;13.69
19286;BME280;9776;50.798;6.430;2022-08-07T09:26:04;101057.50;;;43.12;13.29
19286;BME280;9776;50.798;6.430;2022-08-07T09:28:38;101054.31;;;43.93;12.48
19286;BME280;9776;50.798;6.430;2022-08-07T09:31:10;101051.25;;;44.57;11.93
19286;BME280;9776;50.798;6.430;2022-08-07T09:33:53;101050.34;;;44.69;11.58
19286;BME280;9776;50.798;6.430;2022-08-07T09:36:30;101045.56;;;44.85;11.15
19286;BME280;9776;50.798;6.430;2022-08-07T09:39:04;101034.69;;;45.14;10.94
19286;BME280;9776;50.798;6.430;2022-08-07T09:41:37;101038.13;;;44.73;11.13
19286;BME280;9776;50.798;6.430;2022-08-07T09:44:18;101040.63;;;45.48;10.30
19286;BME280;9776;50.798;6.430;2022-08-07T09:47:01;101038.19;;;45.46;10.38
19286;BME280;9776;50.798;6.430;2022-08-07T09:49:45;101022.53;;;45.61;10.17
19286;BME280;9776;50.798;6.430;2022-08-07T09:52:20;101033.06;;;46.32;9.73
19286;BME280;9776;50.798;6.430;2022-08-07T09:54:54;101016.16;;;47.00;9.14
19286;BME280;9776;50.798;6.430;2022-08-07T10:00:27;101012.78;;;47.47;9.31
19286;BME280;9776;50.798;6.430;2022-08-07T10:03:15;100997.31;;;47.94;8.73
19286;BME280;9776;50.798;6.430;2022-08-07T10:11:50;101009.31;;;49.00;8.10
19286;BME280;9776;50.798;6.430;2022-08-07T10:14:32;100999.78;;;49.22;7.86
19286;BME280;9776;50.798;6.430;2022-08-07T10:17:11;100995.03;;;48.10;8.72
19286;BME280;9776;50.798;6.430;2022-08-07T10:19:53;100989.31;;;47.22;8.78
19286;BME280;9776;50.798;6.430;2022-08-07T10:22:39;100990.97;;;48.48;8.43
19286;BME280;9776;50.798;6.430;2022-08-07T10:25:24;100995.53;;;49.70;7.55
19286;BME280;9776;50.798;6.430;2022-08-07T10:28:07;100989.19;;;50.51;7.28
19286;BME280;9776;50.798;6.430;2022-08-07T10:30:49;100985.78;;;51.13;7.08
19286;BME280;9776;50.798;6.430;2022-08-07T10:33:32;100990.03;;;51.49;6.79
19286;BME280;9776;50.798;6.430;2022-08-07T10:36:16;100978.13;;;51.82;6.40
19286;BME280;9776;50.798;6.430;2022-08-07T10:38:51;100980.00;;;51.41;6.79
19286;BME280;9776;50.798;6.430;2022-08-07T10:41:30;100977.38;;;49.25;7.54
19286;BME280;9776;50.798;6.430;2022-08-07T10:44:04;100975.75;;;49.24;7.73
19286;BME280;9776;50.798;6.430;2022-08-07T10:46:39;100966.69;;;49.73;7.32
19286;BME280;9776;50.798;6.430;2022-08-07T10:49:11;100968.66;;;50.54;6.84
19286;BME280;9776;50.798;6.430;2022-08-07T10:51:51;100970.13;;;51.12;6.71
19286;BME280;9776;50.798;6.430;2022-08-07T10:54:27;100967.31;;;51.81;6.49
19286;BME280;9776;50.798;6.430;2022-08-07T10:57:07;100958.13;;;50.86;6.84
19286;BME280;9776;50.798;6.430;2022-08-07T10:59:50;100952.56;;;49.27;7.18
19286;BME280;9776;50.798;6.430;2022-08-07T11:02:27;100950.19;;;49.40;7.26
19286;BME280;9776;50.798;6.430;2022-08-07T11:05:04;100950.97;;;50.75;6.93
19286;BME280;9776;50.798;6.430;2022-08-07T11:07:39;100940.56;;;50.65;6.66
19286;BME280;9776;50.798;6.430;2022-08-07T11:10:15;100941.81;;;49.68;6.86
19286;BME280;9776;50.798;6.430;2022-08-07T11:12:49;100938.16;;;50.49;6.67
19286;BME280;9776;50.798;6.430;2022-08-07T11:15:22;100930.22;;;50.02;7.03
19286;BME280;9776;50.798;6.430;2022-08-07T11:17:53;100931.78;;;50.24;6.69
19286;BME280;9776;50.798;6.430;2022-08-07T11:20:33;100932.28;;;51.23;6.03
19286;BME280;9776;50.798;6.430;2022-08-07T11:23:07;100921.59;;;51.63;6.02
19286;BME280;9776;50.798;6.430;2022-08-07T11:25:41;100923.50;;;52.21;6.10
19286;BME280;9776;50.798;6.430;2022-08-07T11:28:15;100914.38;;;52.47;6.14
19286;BME280;9776;50.798;6.430;2022-08-07T11:30:50;100924.91;;;52.39;5.82
19286;BME280;9776;50.798;6.430;2022-08-07T11:33:23;100915.88;;;52.55;5.73
19286;BME280;9776;50.798;6.430;2022-08-07T11:36:00;100916.66;;;52.89;5.84
19286;BME280;9776;50.798;6.430;2022-08-07T11:38:38;100918.34;;;52.12;5.78
19286;BME280;9776;50.798;6.430;2022-08-07T11:41:12;100909.38;;;51.80;6.23
19286;BME280;9776;50.798;6.430;2022-08-07T11:43:49;100907.66;;;51.38;6.03
19286;BME280;9776;50.798;6.430;2022-08-07T11:46:35;100911.28;;;51.90;5.89
19286;BME280;9776;50.798;6.430;2022-08-07T11:49:22;100906.56;;;51.18;5.79
19286;BME280;9776;50.798;6.430;2022-08-07T11:52:14;100905.91;;;50.99;6.00
19286;BME280;9776;50.798;6.430;2022-08-07T11:54:55;100906.13;;;49.79;6.62
19286;BME280;9776;50.798;6.430;2022-08-07T11:57:31;100903.69;;;50.27;6.55
19286;BME280;9776;50.798;6.430;2022-08-07T12:00:05;100894.91;;;49.90;6.57
19286;BME280;9776;50.798;6.430;2022-08-07T12:05:47;100904.06;;;51.37;6.06
19286;BME280;9776;50.798;6.430;2022-08-07T12:08:24;100894.38;;;52.34;5.84
19286;BME280;9776;50.798;6.430;2022-08-07T12:10:55;100897.25;;;52.95;5.37
19286;BME280;9776;50.798;6.430;2022-08-07T12:13:26;100902.81;;;53.29;5.29
19286;BME280;9776;50.798;6.430;2022-08-07T12:16:01;100904.25;;;53.40;5.25
19286;BME280;9776;50.798;6.430;2022-08-07T12:18:34;100900.03;;;53.52;5.26
19286;BME280;9776;50.798;6.430;2022-08-07T12:21:14;100896.63;;;53.37;5.27
19286;BME280;9776;50.798;6.430;2022-08-07T12:23:45;100893.66;;;53.48;5.14
19286;BME280;9776;50.798;6.430;2022-08-07T12:26:21;100893.59;;;53.51;5.49
19286;BME280;9776;50.798;6.430;2022-08-07T12:28:55;100879.59;;;53.17;5.61
19286;BME280;9776;50.798;6.430;2022-08-07T12:31:32;100877.13;;;51.84;5.74
19286;BME280;9776;50.798;6.430;2022-08-07T12:34:01;100874.19;;;52.02;5.86
19286;BME280;9776;50.798;6.430;2022-08-07T12:36:29;100871.00;;;51.52;6.25
19286;BME280;9776;50.798;6.430;2022-08-07T12:38:56;100870.19;;;51.99;5.64
19286;BME280;9776;50.798;6.430;2022-08-07T12:41:25;100868.53;;;52.02;5.70
19286;BME280;9776;50.798;6.430;2022-08-07T12:43:55;100864.16;;;51.49;6.26
19286;BME280;9776;50.798;6.430;2022-08-07T12:46:34;100863.56;;;50.23;6.47
19286;BME280;9776;50.798;6.430;2022-08-07T12:49:12;100875.06;;;48.15;7.16
19286;BME280;9776;50.798;6.430;2022-08-07T12:51:47;100864.00;;;45.86;8.17
19286;BME280;9776;50.798;6.430;2022-08-07T12:54:25;100860.56;;;43.85;9.35
19286;BME280;9776;50.798;6.430;2022-08-07T12:56:55;100865.88;;;42.23;10.10
19286;BME280;9776;50.798;6.430;2022-08-07T12:59:27;100858.34;;;40.77;10.96
19286;BME280;9776;50.798;6.430;2022-08-07T13:02:05;100857.19;;;39.52;11.27
19286;BME280;9776;50.798;6.430;2022-08-07T13:04:47;100855.16;;;38.55;11.92
19286;BME280;9776;50.798;6.430;2022-08-07T13:07:36;100856.03;;;37.77;12.46
19286;BME280;9776;50.798;6.430;2022-08-07T13:10:16;100855.03;;;36.97;13.27
19286;BME280;9776;50.798;6.430;2022-08-07T13:13:05;100847.63;;;36.62;13.48
19286;BME280;9776;50.798;6.430;2022-08-07T13:15:39;100848.66;;;36.25;13.85
19286;BME280;9776;50.798;6.430;2022-08-07T13:18:19;100846.44;;;36.14;13.85
19286;BME280;9776;50.798;6.430;2022-08-07T13:20:54;100851.19;;;35.67;14.08
19286;BME280;9776;50.798;6.430;2022-08-07T13:23:28;100849.00;;;35.51;14.31
19286;BME280;9776;50.798;6.430;2022-08-07T13:26:00;100843.47;;;35.05;14.62
19286;BME280;9776;50.798;6.430;2022-08-07T13:28:34;100842.00;;;34.56;14.84
19286;BME280;9776;50.798;6.430;2022-08-07T13:31:13;100825.94;;;34.26;15.27
19286;BME280;9776;50.798;6.430;2022-08-07T13:33:49;100830.31;;;34.08;15.46
19286;BME280;9776;50.798;6.430;2022-08-07T13:36:31;100824.91;;;33.75;15.66
19286;BME280;9776;50.798;6.430;2022-08-07T13:39:07;100822.75;;;33.43;16.19